Bay Shore, New York
Current Conditions -  °F | °C
As of 6:53 PM on Saturday 22 Nov 2014 (Local Time) from KFRG Reporting Station
Broken Clouds Broken Clouds  
Wind Chill:   Ceiling: 12000
Heat Index:   Visibility: 10mi
Dew Point: -7°   Wind: 12mph
Humidity: 38%   Direction: 240°WSW
Pressure: 30.25"   Gusts: 21mph
Location:  40.72°N, 73.25°W
Report Text: KFRG 222353Z 24010G18KT 10SM SCT080 BKN120 07/M07 A3025 RMK AO2 SLP243 T00671067 10072 20050 56012
Loading
Personal Weather Stations






























Interactive Weather Map New forecast layout! Learn more

10-Day Weather Forecast

Advertisements
Track Severe Weather on mobile